F/V Attalaya Berria — FHCB — position and weather

sailwx.info

Track history (hours):
 
Tides and Currents Weather Stations Pressure Air Temp Water Temp Dewpoint Dewpoint Depression Visibility Wind Speed Wind Dir Waves Ship Positions

F/V Attalaya Berria

Last reported at 2016-Feb-05 06:29 UTC. Time now 2016-Feb-10 04:48 UTC.
Position N 43°22' W 001°47'.

Length 26 m.

Type: Fishing. MMSI: 228315000.

Date/timePositionNaut miles runAvg speedWind from/ knotsBaromVisibWave heightAir tempDewpointWater temp
2016-Feb-05 06:29N 43°22' W 001°47'2 0.4
2016-Feb-05 00:28N 43°24' W 001°48'4 3.9
2016-Feb-04 23:33N 43°25' W 001°44'0 0.2
2016-Feb-04 22:33N 43°25' W 001°44'0 0.1
2016-Feb-04 21:33N 43°25' W 001°44'2 1.5
2016-Feb-04 20:33N 43°26' W 001°43'2 1.9
2016-Feb-04 19:33N 43°27' W 001°41'5 0.1
2016-Feb-02 22:28N 43°25' W 001°46'3 2.9
2016-Feb-02 21:32N 43°26' W 001°43'0 0.1
2016-Feb-02 20:31N 43°26' W 001°43'0 0.2
2016-Feb-02 19:30N 43°26' W 001°43'1 0.8
2016-Feb-02 18:33N 43°26' W 001°42'6 0.6
2016-Feb-02 09:20N 43°22' W 001°47'5 5.6
2016-Feb-02 08:30N 43°23' W 001°53'7 1.1
2016-Feb-02 02:32N 43°25' W 001°45'2 1.8
2016-Feb-02 01:33N 43°26' W 001°43'2 2.4
2016-Feb-02 00:33N 43°28' W 001°41'2 2.4
2016-Feb-01 23:31N 43°26' W 001°43'2 1.7
2016-Feb-01 22:33N 43°24' W 001°43'3 3.5
2016-Feb-01 21:33N 43°27' W 001°41'0 0.2
2016-Feb-01 20:33N 43°28' W 001°41'2 1.8
2016-Feb-01 19:33N 43°26' W 001°43'  
2016-Jan-29 06:29N 43°22' W 001°47'2 0.3
2016-Jan-28 23:11N 43°24' W 001°47'3 4.4
2016-Jan-28 22:33N 43°24' W 001°44'5 4.5
2016-Jan-28 21:33N 43°28' W 001°40'0 0.2
2016-Jan-28 20:32N 43°28' W 001°41'2 2.1
2016-Jan-28 19:33N 43°26' W 001°42'1 1.4
2016-Jan-28 18:33N 43°25' W 001°43'4 0.4
2016-Jan-28 07:03N 43°22' W 001°47'3 6.8
2016-Jan-28 06:33N 43°24' W 001°51'1 0.2
2016-Jan-27 23:30N 43°23' W 001°52'7 6.9
2016-Jan-27 22:33N 43°25' W 001°43'0 0.3
2016-Jan-27 21:33N 43°25' W 001°43'0 0.0
2016-Jan-27 20:33N 43°25' W 001°43'3 2.7
2016-Jan-27 19:33N 43°27' W 001°41'6 0.5
2016-Jan-27 06:33N 43°23' W 001°47'3 0.7
2016-Jan-27 02:24N 43°23' W 001°51'6 7.6
2016-Jan-27 01:33N 43°25' W 001°43'3 3.3
2016-Jan-27 00:33N 43°28' W 001°41'2 1.8
2016-Jan-26 23:33N 43°29' W 001°38'3 2.5
2016-Jan-26 22:33N 43°30' W 001°36'5 4.9
2016-Jan-26 21:33N 43°28' W 001°42'1 1.4
2016-Jan-26 20:33N 43°28' W 001°40'1 1.1
2016-Jan-26 19:33N 43°27' W 001°41'3 3.0
2016-Jan-26 18:33N 43°25' W 001°43'  
Track history (hours):
 
Tides and Currents Weather Stations Pressure Air Temp Water Temp Dewpoint Dewpoint Depression Visibility Wind Speed Wind Dir Waves Ship Positions

F/V Attalaya Berria

Last reported at 2016-Feb-05 06:29 UTC. Time now 2016-Feb-10 04:48 UTC.
Position N 43°22' W 001°47'.

Length 26 m.

Type: Fishing. MMSI: 228315000.

Date/timePositionNaut miles runAvg speedWind from/ knotsBaromVisibWave heightAir tempDewpointWater temp
2016-Feb-05 06:29N 43°22' W 001°47'2 0.4
2016-Feb-05 00:28N 43°24' W 001°48'4 3.9
2016-Feb-04 23:33N 43°25' W 001°44'0 0.2
2016-Feb-04 22:33N 43°25' W 001°44'0 0.1
2016-Feb-04 21:33N 43°25' W 001°44'2 1.5
2016-Feb-04 20:33N 43°26' W 001°43'2 1.9
2016-Feb-04 19:33N 43°27' W 001°41'5 0.1
2016-Feb-02 22:28N 43°25' W 001°46'3 2.9
2016-Feb-02 21:32N 43°26' W 001°43'0 0.1
2016-Feb-02 20:31N 43°26' W 001°43'0 0.2
2016-Feb-02 19:30N 43°26' W 001°43'1 0.8
2016-Feb-02 18:33N 43°26' W 001°42'6 0.6
2016-Feb-02 09:20N 43°22' W 001°47'5 5.6
2016-Feb-02 08:30N 43°23' W 001°53'7 1.1
2016-Feb-02 02:32N 43°25' W 001°45'2 1.8
2016-Feb-02 01:33N 43°26' W 001°43'2 2.4
2016-Feb-02 00:33N 43°28' W 001°41'2 2.4
2016-Feb-01 23:31N 43°26' W 001°43'2 1.7
2016-Feb-01 22:33N 43°24' W 001°43'3 3.5
2016-Feb-01 21:33N 43°27' W 001°41'0 0.2
2016-Feb-01 20:33N 43°28' W 001°41'2 1.8
2016-Feb-01 19:33N 43°26' W 001°43'  
2016-Jan-29 06:29N 43°22' W 001°47'2 0.3
2016-Jan-28 23:11N 43°24' W 001°47'3 4.4
2016-Jan-28 22:33N 43°24' W 001°44'5 4.5
2016-Jan-28 21:33N 43°28' W 001°40'0 0.2
2016-Jan-28 20:32N 43°28' W 001°41'2 2.1
2016-Jan-28 19:33N 43°26' W 001°42'1 1.4
2016-Jan-28 18:33N 43°25' W 001°43'4 0.4
2016-Jan-28 07:03N 43°22' W 001°47'3 6.8
2016-Jan-28 06:33N 43°24' W 001°51'1 0.2
2016-Jan-27 23:30N 43°23' W 001°52'7 6.9
2016-Jan-27 22:33N 43°25' W 001°43'0 0.3
2016-Jan-27 21:33N 43°25' W 001°43'0 0.0
2016-Jan-27 20:33N 43°25' W 001°43'3 2.7
2016-Jan-27 19:33N 43°27' W 001°41'6 0.5
2016-Jan-27 06:33N 43°23' W 001°47'3 0.7
2016-Jan-27 02:24N 43°23' W 001°51'6 7.6
2016-Jan-27 01:33N 43°25' W 001°43'3 3.3
2016-Jan-27 00:33N 43°28' W 001°41'2 1.8
2016-Jan-26 23:33N 43°29' W 001°38'3 2.5
2016-Jan-26 22:33N 43°30' W 001°36'5 4.9
2016-Jan-26 21:33N 43°28' W 001°42'1 1.4
2016-Jan-26 20:33N 43°28' W 001°40'1 1.1
2016-Jan-26 19:33N 43°27' W 001°41'3 3.0
2016-Jan-26 18:33N 43°25' W 001°43'  

Dump ship's entire track history